Time;durP1;ratioP1;P1;durP2;ratioP2;P2;SDS_P1;SDS_P2;PMS_P1;PMS_P2;Temp;Humidity;BMP_temperature;BMP_pressure;BME280_temperature;BME280_humidity;BME280_pressure;Samples;Min_cycle;Max_cycle;Signal;HPM_P1;HPM_P2
2022/04/03 00:00:38;;;;;;;14.15;6.05;;;;;;;;;;5074554;28;20126;-72
2022/04/03 00:03:04;;;;;;;8.85;5.28;;;;;;;;;;5074680;28;20101;-72
2022/04/03 00:05:33;;;;;;;6.78;5.00;;;;;;;;;;5074558;28;20523;-72
2022/04/03 00:07:59;;;;;;;6.53;5.10;;;;;;;;;;5074670;28;20013;-72
2022/04/03 00:10:24;;;;;;;8.05;5.75;;;;;;;;;;5074679;28;20138;-72
2022/04/03 00:12:50;;;;;;;5.82;5.22;;;;;;;;;;5074272;28;20468;-72
2022/04/03 00:15:16;;;;;;;6.68;4.90;;;;;;;;;;5074456;28;20025;-72
2022/04/03 00:17:42;;;;;;;7.78;4.90;;;;;;;;;;5074411;28;20035;-72
2022/04/03 00:20:09;;;;;;;7.68;4.72;;;;;;;;;;5074599;28;20036;-72
2022/04/03 00:22:34;;;;;;;7.90;4.68;;;;;;;;;;5074107;28;20021;-72
2022/04/03 00:25:00;;;;;;;8.07;5.22;;;;;;;;;;5074034;28;20028;-72
2022/04/03 00:27:26;;;;;;;8.82;5.32;;;;;;;;;;5073942;28;20416;-72
2022/04/03 00:29:51;;;;;;;8.13;5.10;;;;;;;;;;5072868;28;20499;-72
2022/04/03 00:32:17;;;;;;;9.05;5.07;;;;;;;;;;5073006;28;20111;-72
2022/04/03 00:34:42;;;;;;;5.20;4.55;;;;;;;;;;5072352;28;20044;-72
2022/04/03 00:37:08;;;;;;;8.02;4.60;;;;;;;;;;5073363;28;20451;-72
2022/04/03 00:39:33;;;;;;;6.57;4.18;;;;;;;;;;5072706;28;20016;-72
2022/04/03 00:41:59;;;;;;;7.13;4.90;;;;;;;;;;5073468;28;20046;-72
2022/04/03 00:44:25;;;;;;;8.10;4.82;;;;;;;;;;5073607;28;20025;-72
2022/04/03 00:46:51;;;;;;;7.70;4.80;;;;;;;;;;5073696;28;20025;-72
2022/04/03 00:49:16;;;;;;;6.25;4.65;;;;;;;;;;5073868;28;20371;-72
2022/04/03 00:51:42;;;;;;;5.95;4.28;;;;;;;;;;5073724;28;20052;-72
2022/04/03 00:54:08;;;;;;;6.68;4.32;;;;;;;;;;5072723;28;20024;-72
2022/04/03 00:56:33;;;;;;;8.02;4.88;;;;;;;;;;5072442;28;20021;-72
2022/04/03 00:58:59;;;;;;;5.22;4.35;;;;;;;;;;5073730;28;20101;-71
2022/04/03 01:01:25;;;;;;;5.13;4.22;;;;;;;;;;5072554;28;20021;-70
2022/04/03 01:03:51;;;;;;;7.30;4.50;;;;;;;;;;5073645;28;20020;-72
2022/04/03 01:06:17;;;;;;;6.72;4.45;;;;;;;;;;5073689;28;20043;-72
2022/04/03 01:08:42;;;;;;;6.28;4.53;;;;;;;;;;5072436;28;20030;-72
2022/04/03 01:11:09;;;;;;;6.20;3.95;;;;;;;;;;5073434;28;20032;-72
2022/04/03 01:13:43;;;;;;;6.43;4.28;;;;;;;;;;5073378;28;20032;-72
2022/04/03 01:16:09;;;;;;;8.40;4.25;;;;;;;;;;5073310;28;20041;-72
2022/04/03 01:18:34;;;;;;;6.70;4.20;;;;;;;;;;5073426;28;20070;-72
2022/04/03 01:21:00;;;;;;;6.10;4.20;;;;;;;;;;5072411;28;20051;-72
2022/04/03 01:23:25;;;;;;;8.68;4.40;;;;;;;;;;5072264;28;20527;-72
2022/04/03 01:25:50;;;;;;;4.82;4.05;;;;;;;;;;5073614;28;20034;-72
2022/04/03 01:28:16;;;;;;;4.00;3.70;;;;;;;;;;5073676;28;20043;-72
2022/04/03 01:30:41;;;;;;;6.32;4.32;;;;;;;;;;5073419;28;20029;-72
2022/04/03 01:33:07;;;;;;;8.35;4.25;;;;;;;;;;5073417;28;20021;-70
2022/04/03 01:35:32;;;;;;;5.38;4.38;;;;;;;;;;5072679;28;20040;-70
2022/04/03 01:37:58;;;;;;;7.47;3.92;;;;;;;;;;5073145;28;20027;-69
2022/04/03 01:40:25;;;;;;;4.97;4.32;;;;;;;;;;5073133;28;20033;-70
2022/04/03 01:42:50;;;;;;;6.70;4.60;;;;;;;;;;5073246;28;20096;-70
2022/04/03 01:45:16;;;;;;;8.05;4.97;;;;;;;;;;5073329;28;20048;-69
2022/04/03 01:47:42;;;;;;;4.88;4.35;;;;;;;;;;5074833;28;20397;-70
2022/04/03 01:50:08;;;;;;;6.45;4.20;;;;;;;;;;5077050;28;20035;-71
2022/04/03 01:52:34;;;;;;;6.50;4.72;;;;;;;;;;5076983;28;20032;-71
2022/04/03 01:54:59;;;;;;;7.65;4.28;;;;;;;;;;5077103;28;20037;-71
2022/04/03 01:57:25;;;;;;;5.88;4.30;;;;;;;;;;5077085;28;20031;-71
2022/04/03 01:59:51;;;;;;;5.40;4.40;;;;;;;;;;5076019;28;20032;-71
2022/04/03 02:02:16;;;;;;;8.60;4.05;;;;;;;;;;5077165;28;20418;-71
2022/04/03 02:04:42;;;;;;;7.25;4.45;;;;;;;;;;5075780;28;20111;-71
2022/04/03 02:07:09;;;;;;;6.47;4.30;;;;;;;;;;5075822;28;20467;-71
2022/04/03 02:09:34;;;;;;;6.07;4.45;;;;;;;;;;5075712;28;20052;-71
2022/04/03 02:12:00;;;;;;;8.55;4.55;;;;;;;;;;5075627;28;20013;-71
2022/04/03 02:14:26;;;;;;;7.95;4.63;;;;;;;;;;5076629;28;20541;-71
2022/04/03 02:16:55;;;;;;;6.22;4.45;;;;;;;;;;5076450;28;20020;-71
2022/04/03 02:19:20;;;;;;;4.90;4.35;;;;;;;;;;5075253;28;20025;-70
2022/04/03 02:21:46;;;;;;;7.82;5.28;;;;;;;;;;5076721;28;20439;-70
2022/04/03 02:24:12;;;;;;;7.78;5.43;;;;;;;;;;5076754;28;20024;-71
2022/04/03 02:26:38;;;;;;;7.10;4.75;;;;;;;;;;5076541;28;20017;-70
2022/04/03 02:29:04;;;;;;;7.55;5.40;;;;;;;;;;5076309;28;20033;-71
2022/04/03 02:31:29;;;;;;;6.38;4.85;;;;;;;;;;5076009;28;20029;-73
2022/04/03 02:33:55;;;;;;;8.20;5.07;;;;;;;;;;5076778;28;20115;-71
2022/04/03 02:36:20;;;;;;;4.97;4.47;;;;;;;;;;5076030;28;20135;-72
2022/04/03 02:38:46;;;;;;;6.70;5.30;;;;;;;;;;5076340;28;20372;-71
2022/04/03 02:41:12;;;;;;;7.00;4.90;;;;;;;;;;5076579;28;20045;-72
2022/04/03 02:43:38;;;;;;;10.13;5.28;;;;;;;;;;5074963;28;20142;-71
2022/04/03 02:46:03;;;;;;;7.43;4.90;;;;;;;;;;5076187;28;20528;-71
2022/04/03 02:48:28;;;;;;;7.53;5.00;;;;;;;;;;5075965;28;20028;-71
2022/04/03 02:50:54;;;;;;;8.05;5.32;;;;;;;;;;5076205;28;20025;-70
2022/04/03 02:53:20;;;;;;;5.30;4.35;;;;;;;;;;5075962;28;20055;-70
2022/04/03 02:55:46;;;;;;;6.00;4.20;;;;;;;;;;5075743;28;20095;-71
2022/04/03 02:58:12;;;;;;;7.20;4.75;;;;;;;;;;5075807;28;20449;-69
2022/04/03 03:00:39;;;;;;;6.50;4.65;;;;;;;;;;5073814;28;20020;-69
2022/04/03 03:03:06;;;;;;;6.32;4.57;;;;;;;;;;5075851;28;20434;-69
2022/04/03 03:05:32;;;;;;;5.28;4.28;;;;;;;;;;5075869;28;20043;-69
2022/04/03 03:07:58;;;;;;;6.97;4.72;;;;;;;;;;5075590;28;20472;-70
2022/04/03 03:10:24;;;;;;;8.23;4.80;;;;;;;;;;5075429;28;20035;-70
2022/04/03 03:12:50;;;;;;;6.70;5.00;;;;;;;;;;5057487;28;20384;-70
2022/04/03 03:15:16;;;;;;;8.68;5.03;;;;;;;;;;5057351;28;20020;-70
2022/04/03 03:17:42;;;;;;;7.57;4.82;;;;;;;;;;5075496;28;20379;-70
2022/04/03 03:20:08;;;;;;;7.20;4.70;;;;;;;;;;5075792;28;20016;-70
2022/04/03 03:22:35;;;;;;;12.45;4.60;;;;;;;;;;5075563;28;20017;-70
2022/04/03 03:25:05;;;;;;;6.47;4.63;;;;;;;;;;5073428;28;21024;-70
2022/04/03 03:27:31;;;;;;;6.60;4.63;;;;;;;;;;5075285;28;20038;-72
2022/04/03 03:29:56;;;;;;;10.15;4.75;;;;;;;;;;5075503;28;20024;-72
2022/04/03 03:32:23;;;;;;;5.22;3.85;;;;;;;;;;5074071;28;20075;-72
2022/04/03 03:34:49;;;;;;;4.72;3.78;;;;;;;;;;5073770;28;20048;-72
2022/04/03 03:37:15;;;;;;;7.70;4.70;;;;;;;;;;5074279;28;20396;-71
2022/04/03 03:39:40;;;;;;;5.80;4.05;;;;;;;;;;5075309;28;20040;-72
2022/04/03 03:42:06;;;;;;;5.93;3.97;;;;;;;;;;5073833;28;20029;-72
2022/04/03 03:44:31;;;;;;;6.32;4.03;;;;;;;;;;5075296;28;20051;-70
2022/04/03 03:46:57;;;;;;;5.55;4.22;;;;;;;;;;5074870;28;20024;-72
2022/04/03 03:49:23;;;;;;;6.57;3.75;;;;;;;;;;5075035;28;20024;-71
2022/04/03 03:51:49;;;;;;;6.95;4.43;;;;;;;;;;5075141;28;20033;-72
2022/04/03 03:54:14;;;;;;;6.28;3.95;;;;;;;;;;5074755;28;20413;-72
2022/04/03 03:56:40;;;;;;;5.82;4.10;;;;;;;;;;5074496;28;20032;-72
2022/04/03 03:59:05;;;;;;;5.22;3.78;;;;;;;;;;5074574;28;20023;-72
2022/04/03 04:01:31;;;;;;;5.13;3.88;;;;;;;;;;5074478;28;20472;-72
2022/04/03 04:03:56;;;;;;;6.20;3.88;;;;;;;;;;5073456;28;20356;-72
2022/04/03 04:06:22;;;;;;;5.60;4.30;;;;;;;;;;5074573;28;20704;-72
2022/04/03 04:08:48;;;;;;;5.60;4.25;;;;;;;;;;5073480;28;20024;-71
2022/04/03 04:11:13;;;;;;;7.20;3.92;;;;;;;;;;5074633;28;20459;-71
2022/04/03 04:13:39;;;;;;;6.30;4.00;;;;;;;;;;5073287;28;20024;-70
2022/04/03 04:16:05;;;;;;;7.60;4.20;;;;;;;;;;5074493;28;20032;-70
2022/04/03 04:18:30;;;;;;;5.70;3.90;;;;;;;;;;5073762;28;20021;-70
2022/04/03 04:20:56;;;;;;;5.95;3.70;;;;;;;;;;5074376;28;20440;-70
2022/04/03 04:23:22;;;;;;;5.05;3.97;;;;;;;;;;5074586;28;20021;-70
2022/04/03 04:25:47;;;;;;;5.88;3.60;;;;;;;;;;5073188;28;20028;-70
2022/04/03 04:28:13;;;;;;;7.07;3.80;;;;;;;;;;5072988;28;20035;-70
2022/04/03 04:30:38;;;;;;;6.93;4.53;;;;;;;;;;5072940;28;20115;-72
2022/04/03 04:33:04;;;;;;;5.80;4.05;;;;;;;;;;5074175;28;20016;-72
2022/04/03 04:35:30;;;;;;;5.13;4.15;;;;;;;;;;5073384;28;20049;-72
2022/04/03 04:37:55;;;;;;;6.55;4.45;;;;;;;;;;5072590;28;20021;-72
2022/04/03 04:40:21;;;;;;;4.90;3.92;;;;;;;;;;5073120;28;20028;-72
2022/04/03 04:42:47;;;;;;;7.78;4.15;;;;;;;;;;5073988;28;20099;-72
2022/04/03 04:45:14;;;;;;;3.95;3.50;;;;;;;;;;5072904;28;20361;-72
2022/04/03 04:47:40;;;;;;;4.93;3.33;;;;;;;;;;5073975;28;20023;-72
2022/04/03 04:50:11;;;;;;;6.93;4.65;;;;;;;;;;5073532;28;20032;-69
2022/04/03 04:52:36;;;;;;;;;;;;;;;;;;5072887;28;20028;-71
2022/04/03 04:55:05;;;;;;;6.40;4.32;;;;;;;;;;5073432;28;19973;-71
2022/04/03 04:57:31;;;;;;;5.65;4.15;;;;;;;;;;5073806;28;20055;-72
2022/04/03 04:59:57;;;;;;;5.25;3.60;;;;;;;;;;5074015;28;20009;-74
2022/04/03 05:02:23;;;;;;;7.95;4.57;;;;;;;;;;5072754;28;20033;-75
2022/04/03 05:04:48;;;;;;;7.38;5.03;;;;;;;;;;5073714;28;20080;-73
2022/04/03 05:07:14;;;;;;;15.18;9.15;;;;;;;;;;5073523;28;20045;-72
2022/04/03 05:09:39;;;;;;;38.47;17.83;;;;;;;;;;5073724;28;20031;-72
2022/04/03 05:12:05;;;;;;;10.05;7.32;;;;;;;;;;5073359;28;20054;-72
2022/04/03 05:14:30;;;;;;;7.03;6.28;;;;;;;;;;5073119;28;20046;-72
2022/04/03 05:16:56;;;;;;;6.85;5.80;;;;;;;;;;5055994;28;20040;-72
2022/04/03 05:19:24;;;;;;;8.15;5.47;;;;;;;;;;5073726;28;20019;-72
2022/04/03 05:21:50;;;;;;;6.88;4.90;;;;;;;;;;5073322;28;20036;-72
2022/04/03 05:24:16;;;;;;;12.95;9.40;;;;;;;;;;5073517;28;20013;-72
2022/04/03 05:26:41;;;;;;;9.68;5.63;;;;;;;;;;5073424;28;20056;-73
2022/04/03 05:29:07;;;;;;;18.20;7.75;;;;;;;;;;5073617;28;20017;-72
2022/04/03 05:31:33;;;;;;;16.77;8.15;;;;;;;;;;5072050;28;20040;-72
2022/04/03 05:33:58;;;;;;;11.90;7.28;;;;;;;;;;5055018;28;20040;-72
2022/04/03 05:36:24;;;;;;;15.02;6.53;;;;;;;;;;5072987;28;20044;-72
2022/04/03 05:38:50;;;;;;;12.57;6.75;;;;;;;;;;5073265;28;20027;-72
2022/04/03 05:41:15;;;;;;;9.00;5.40;;;;;;;;;;5073322;28;20060;-72
2022/04/03 05:43:41;;;;;;;13.15;7.50;;;;;;;;;;5072977;28;20436;-72
2022/04/03 05:46:07;;;;;;;8.50;5.05;;;;;;;;;;5073213;28;20024;-73
2022/04/03 05:48:33;;;;;;;14.98;7.35;;;;;;;;;;5071980;28;20058;-72
2022/04/03 05:50:58;;;;;;;10.18;6.03;;;;;;;;;;5073160;28;20120;-71
2022/04/03 05:53:24;;;;;;;7.00;4.63;;;;;;;;;;5072446;28;20123;-71
2022/04/03 05:55:49;;;;;;;18.15;8.02;;;;;;;;;;5072835;28;20024;-70
2022/04/03 05:58:14;;;;;;;18.00;7.25;;;;;;;;;;5072907;28;20417;-72
2022/04/03 06:00:40;;;;;;;13.07;6.72;;;;;;;;;;5072963;28;20455;-71
2022/04/03 06:03:05;;;;;;;23.10;8.30;;;;;;;;;;5071976;28;20372;-71
2022/04/03 06:05:33;;;;;;;14.40;6.38;;;;;;;;;;5072657;28;20028;-73
2022/04/03 06:07:59;;;;;;;24.00;9.60;;;;;;;;;;5071952;28;20576;-73
2022/04/03 06:10:25;;;;;;;17.13;7.18;;;;;;;;;;5072933;28;20040;-72
2022/04/03 06:12:51;;;;;;;14.63;7.40;;;;;;;;;;5071700;28;20052;-72
2022/04/03 06:15:17;;;;;;;13.73;5.90;;;;;;;;;;5072150;28;20107;-73
2022/04/03 06:17:42;;;;;;;9.80;4.80;;;;;;;;;;5072359;28;20397;-73
2022/04/03 06:20:08;;;;;;;13.95;6.07;;;;;;;;;;5071651;28;20025;-72
2022/04/03 06:22:35;;;;;;;13.93;6.55;;;;;;;;;;5072617;28;20120;-77
2022/04/03 06:25:01;;;;;;;19.27;8.43;;;;;;;;;;5071509;28;20029;-73
2022/04/03 06:27:27;;;;;;;13.57;6.18;;;;;;;;;;5072829;28;20455;-77
2022/04/03 06:30:13;;;;;;;9.70;5.03;;;;;;;;;;5072969;28;20480;-78
2022/04/03 06:32:45;;;;;;;9.57;5.45;;;;;;;;;;5072626;28;20039;-78
2022/04/03 06:35:13;;;;;;;8.23;4.97;;;;;;;;;;5073468;28;20063;-78
2022/04/03 06:37:45;;;;;;;8.15;5.30;;;;;;;;;;5076373;28;20032;-78
2022/04/03 06:40:11;;;;;;;13.00;6.38;;;;;;;;;;5076691;28;20029;-78
2022/04/03 06:42:38;;;;;;;9.73;5.53;;;;;;;;;;5058546;28;20108;-77
2022/04/03 06:45:06;;;;;;;10.00;5.10;;;;;;;;;;5075873;28;20024;-78
2022/04/03 06:47:40;;;;;;;7.25;4.88;;;;;;;;;;5075737;28;20021;-77
2022/04/03 06:50:08;;;;;;;6.20;4.55;;;;;;;;;;5075837;28;20086;-77
2022/04/03 06:52:36;;;;;;;7.72;5.28;;;;;;;;;;5072590;28;20033;-77
2022/04/03 06:55:08;;;;;;;7.78;5.05;;;;;;;;;;5075891;28;20123;-77
2022/04/03 06:57:34;;;;;;;7.10;4.00;;;;;;;;;;5076322;28;20046;-78
2022/04/03 07:00:00;;;;;;;8.05;5.05;;;;;;;;;;5076015;28;20096;-77
2022/04/03 07:02:29;;;;;;;6.57;4.50;;;;;;;;;;5075847;28;20028;-78
2022/04/03 07:04:56;;;;;;;5.60;4.40;;;;;;;;;;5075808;28;20028;-77
2022/04/03 07:07:29;;;;;;;5.55;4.50;;;;;;;;;;5076235;28;20044;-78
2022/04/03 07:09:55;;;;;;;6.63;4.93;;;;;;;;;;5076062;28;20021;-77
2022/04/03 07:12:24;;;;;;;7.97;4.82;;;;;;;;;;5075695;28;20120;-77
2022/04/03 07:14:50;;;;;;;6.78;4.85;;;;;;;;;;5074737;28;20025;-77
2022/04/03 07:17:16;;;;;;;7.35;4.68;;;;;;;;;;5076095;28;20020;-77
2022/04/03 07:19:45;;;;;;;7.22;4.50;;;;;;;;;;5075739;28;20388;-77
2022/04/03 07:22:10;;;;;;;4.90;4.43;;;;;;;;;;5075509;28;20024;-77
2022/04/03 07:24:36;;;;;;;6.85;4.75;;;;;;;;;;5074887;28;20131;-78
2022/04/03 07:27:02;;;;;;;7.38;5.13;;;;;;;;;;5075313;28;20481;-77
2022/04/03 07:29:33;;;;;;;7.57;4.57;;;;;;;;;;5074669;28;20037;-79
2022/04/03 07:32:00;;;;;;;8.60;5.47;;;;;;;;;;5072763;28;20107;-78
2022/04/03 07:34:29;;;;;;;9.40;5.35;;;;;;;;;;5073626;28;20020;-79
2022/04/03 07:36:56;;;;;;;8.98;5.00;;;;;;;;;;5073842;28;20041;-79
2022/04/03 07:39:36;;;;;;;7.35;4.40;;;;;;;;;;5075389;28;20020;-78
2022/04/03 07:42:04;;;;;;;7.10;5.20;;;;;;;;;;5075189;28;20590;-79
2022/04/03 07:44:32;;;;;;;5.93;4.93;;;;;;;;;;5073860;28;20028;-79
2022/04/03 07:46:57;;;;;;;8.65;4.95;;;;;;;;;;5074661;28;20031;-79
2022/04/03 07:49:25;;;;;;;5.63;4.10;;;;;;;;;;5074892;28;20480;-80
2022/04/03 07:51:50;;;;;;;7.07;4.30;;;;;;;;;;5074631;28;20090;-71
2022/04/03 07:54:16;;;;;;;6.50;4.80;;;;;;;;;;5073239;28;20025;-74
2022/04/03 07:56:41;;;;;;;6.38;4.68;;;;;;;;;;5074290;28;20098;-71
2022/04/03 07:59:07;;;;;;;23.38;12.35;;;;;;;;;;5074596;28;20021;-73
2022/04/03 08:01:33;;;;;;;7.55;6.50;;;;;;;;;;5074528;28;20074;-73
2022/04/03 08:03:59;;;;;;;6.93;5.65;;;;;;;;;;5074644;28;20075;-73
2022/04/03 08:06:24;;;;;;;7.55;4.53;;;;;;;;;;5074040;28;20488;-74
2022/04/03 08:08:49;;;;;;;397.05;133.23;;;;;;;;;;5074519;28;20093;-73
2022/04/03 08:11:15;;;;;;;134.38;84.40;;;;;;;;;;5073064;28;20044;-73
2022/04/03 08:13:40;;;;;;;366.48;195.05;;;;;;;;;;5073846;28;20032;-73
2022/04/03 08:16:06;;;;;;;338.13;175.13;;;;;;;;;;5074485;28;20025;-74
2022/04/03 08:18:31;;;;;;;176.07;108.88;;;;;;;;;;5073111;28;20479;-73
2022/04/03 08:20:58;;;;;;;63.25;34.85;;;;;;;;;;5073791;28;20539;-74
2022/04/03 08:23:23;;;;;;;997.58;605.75;;;;;;;;;;5073959;28;20039;-64
2022/04/03 08:25:49;;;;;;;783.10;500.10;;;;;;;;;;5074337;28;20384;-64
2022/04/03 08:28:17;;;;;;;182.65;104.72;;;;;;;;;;5074486;28;20052;-65
2022/04/03 08:30:42;;;;;;;357.50;221.85;;;;;;;;;;5074296;28;20028;-64
2022/04/03 08:33:11;;;;;;;693.88;497.95;;;;;;;;;;5074242;28;20383;-64
2022/04/03 08:35:38;;;;;;;429.65;267.35;;;;;;;;;;5073402;28;20040;-64
2022/04/03 08:38:04;;;;;;;22.50;16.25;;;;;;;;;;5074320;28;20021;-64
2022/04/03 08:40:31;;;;;;;13.68;9.40;;;;;;;;;;5073998;28;20472;-64
2022/04/03 08:42:57;;;;;;;130.75;68.25;;;;;;;;;;5073784;28;20070;-64
2022/04/03 08:45:23;;;;;;;101.18;45.38;;;;;;;;;;5073742;28;20028;-64
2022/04/03 08:47:50;;;;;;;580.78;223.13;;;;;;;;;;5074003;28;20480;-64
2022/04/03 08:50:17;;;;;;;1328.95;593.83;;;;;;;;;;5073863;28;20016;-64
2022/04/03 08:52:46;;;;;;;1626.90;660.42;;;;;;;;;;5074140;28;20107;-64
2022/04/03 08:55:12;;;;;;;344.83;117.20;;;;;;;;;;5073615;28;20472;-64
2022/04/03 08:57:37;;;;;;;655.83;217.75;;;;;;;;;;5072925;28;20039;-64
2022/04/03 09:00:03;;;;;;;1386.53;517.38;;;;;;;;;;5073737;28;20031;-64
2022/04/03 09:02:29;;;;;;;149.85;51.53;;;;;;;;;;5073386;28;20024;-64
2022/04/03 09:04:54;;;;;;;1026.07;375.63;;;;;;;;;;5073546;28;20479;-64
2022/04/03 09:07:20;;;;;;;713.28;240.60;;;;;;;;;;5073582;28;20119;-64
2022/04/03 09:09:55;;;;;;;845.60;310.05;;;;;;;;;;5073621;28;20028;-65
2022/04/03 09:12:20;;;;;;;1538.65;558.50;;;;;;;;;;5072635;28;20032;-65
2022/04/03 09:14:50;;;;;;;222.35;75.50;;;;;;;;;;5072249;28;20016;-65
2022/04/03 09:17:31;;;;;;;920.90;343.93;;;;;;;;;;5073070;28;20491;-65
2022/04/03 09:19:59;;;;;;;138.10;44.30;;;;;;;;;;5071185;28;20028;-65
2022/04/03 09:22:28;;;;;;;579.00;209.05;;;;;;;;;;5073013;28;20017;-65
2022/04/03 09:36:08;;;;;;;8.35;5.70;;;;;;;;;;5073193;28;20044;-74
2022/04/03 09:38:35;;;;;;;4.95;4.10;;;;;;;;;;5072926;28;20396;-74
2022/04/03 09:41:03;;;;;;;284.65;137.13;;;;;;;;;;5072918;28;20036;-74
2022/04/03 09:43:34;;;;;;;35.05;20.08;;;;;;;;;;5072940;28;20480;-74
2022/04/03 09:46:01;;;;;;;76.57;40.33;;;;;;;;;;5072584;28;20036;-74
2022/04/03 09:48:39;;;;;;;9.23;6.43;;;;;;;;;;5072813;28;20379;-74
2022/04/03 09:54:39;;;;;;;114.93;63.80;;;;;;;;;;5073609;28;20067;-73
2022/04/03 10:00:41;;;;;;;6.28;5.65;;;;;;;;;;5073539;28;20028;-73
2022/04/03 10:06:43;;;;;;;9.60;6.88;;;;;;;;;;5073191;28;20051;-73
2022/04/03 10:12:43;;;;;;;9.18;8.00;;;;;;;;;;5073068;28;20028;-73
2022/04/03 10:15:09;;;;;;;3.45;3.13;;;;;;;;;;5071860;28;20036;-73
2022/04/03 10:17:35;;;;;;;11.05;9.30;;;;;;;;;;5071606;28;20021;-73
2022/04/03 10:20:00;;;;;;;13.80;12.32;;;;;;;;;;5071329;28;20029;-73
2022/04/03 10:22:28;;;;;;;8.13;6.20;;;;;;;;;;5071740;28;20025;-73
2022/04/03 10:24:55;;;;;;;15.75;12.38;;;;;;;;;;5071524;28;20463;-73
2022/04/03 10:27:27;;;;;;;13.60;8.32;;;;;;;;;;5071355;28;20017;-73
2022/04/03 10:29:55;;;;;;;82.72;37.55;;;;;;;;;;5071228;28;20028;-73
2022/04/03 10:32:22;;;;;;;95.32;47.78;;;;;;;;;;5071663;28;20395;-74
2022/04/03 10:34:50;;;;;;;93.63;45.65;;;;;;;;;;5071079;28;20029;-73
2022/04/03 10:37:32;;;;;;;19.80;10.98;;;;;;;;;;5071828;28;20028;-73
2022/04/03 10:40:10;;;;;;;166.93;76.80;;;;;;;;;;5069591;28;20032;-74
2022/04/03 10:42:52;;;;;;;24.88;11.95;;;;;;;;;;5071429;28;20799;-73
2022/04/03 10:45:19;;;;;;;6.35;4.80;;;;;;;;;;5071057;28;20055;-73
2022/04/03 10:47:45;;;;;;;64.53;23.02;;;;;;;;;;5071247;28;20125;-74
2022/04/03 10:50:20;;;;;;;663.90;232.57;;;;;;;;;;5070931;28;20491;-74
2022/04/03 10:52:46;;;;;;;100.03;36.88;;;;;;;;;;5070898;28;20035;-73
2022/04/03 10:55:11;;;;;;;6.60;5.03;;;;;;;;;;5071142;28;20476;-73
2022/04/03 10:57:43;;;;;;;38.38;12.45;;;;;;;;;;5071202;28;20131;-73
2022/04/03 11:00:09;;;;;;;435.45;125.32;;;;;;;;;;5070683;28;20059;-73
2022/04/03 11:02:34;;;;;;;346.00;109.95;;;;;;;;;;5070972;28;20023;-73
2022/04/03 11:05:20;;;;;;;109.13;32.70;;;;;;;;;;5070451;28;20029;-73
2022/04/03 11:07:45;;;;;;;14.20;6.00;;;;;;;;;;5070805;28;20059;-73
2022/04/03 11:10:11;;;;;;;4.90;3.92;;;;;;;;;;5070535;28;20488;-73
2022/04/03 11:12:54;;;;;;;9.13;3.95;;;;;;;;;;5070746;28;20135;-74
2022/04/03 11:15:20;;;;;;;4.68;3.35;;;;;;;;;;5070537;28;20038;-74
2022/04/03 11:17:45;;;;;;;4.70;3.60;;;;;;;;;;5070616;28;20024;-74
2022/04/03 11:20:27;;;;;;;6.75;4.18;;;;;;;;;;5069358;28;20119;-75
2022/04/03 11:22:53;;;;;;;5.57;4.05;;;;;;;;;;5070690;28;20029;-74
2022/04/03 11:25:18;;;;;;;5.75;4.07;;;;;;;;;;5068795;28;20031;-72
2022/04/03 11:27:44;;;;;;;107.38;35.17;;;;;;;;;;5070587;28;20048;-74
2022/04/03 11:30:09;;;;;;;9.40;5.22;;;;;;;;;;5069792;28;20032;-74
2022/04/03 11:32:35;;;;;;;5.50;4.20;;;;;;;;;;5070503;28;20058;-74
2022/04/03 11:35:03;;;;;;;6.38;4.75;;;;;;;;;;5069976;28;20040;-73
2022/04/03 11:37:29;;;;;;;5.72;4.05;;;;;;;;;;5070425;28;20381;-74
2022/04/03 11:39:55;;;;;;;83.10;36.97;;;;;;;;;;5069930;28;20531;-74
2022/04/03 11:42:24;;;;;;;35.08;15.82;;;;;;;;;;5070009;28;20028;-74
2022/04/03 11:44:53;;;;;;;110.65;51.60;;;;;;;;;;5069890;28;20669;-73
2022/04/03 11:47:20;;;;;;;203.60;96.40;;;;;;;;;;5069840;28;20381;-73
2022/04/03 11:49:45;;;;;;;13.15;6.75;;;;;;;;;;5069628;28;20369;-73
2022/04/03 11:52:11;;;;;;;3.97;3.38;;;;;;;;;;5069823;28;20050;-73
2022/04/03 11:54:37;;;;;;;11.80;6.20;;;;;;;;;;5070010;28;20009;-73
2022/04/03 11:57:04;;;;;;;7.35;4.18;;;;;;;;;;5069863;28;20523;-74
2022/04/03 11:59:33;;;;;;;6.55;4.22;;;;;;;;;;5068062;28;20063;-73
2022/04/03 12:02:07;;;;;;;3.20;2.90;;;;;;;;;;5068282;28;20072;-73
2022/04/03 12:04:36;;;;;;;3.78;3.28;;;;;;;;;;5069759;28;20047;-74
2022/04/03 12:07:03;;;;;;;4.47;4.03;;;;;;;;;;5069177;28;20039;-73
2022/04/03 12:09:28;;;;;;;5.32;4.82;;;;;;;;;;5069343;28;20488;-73
2022/04/03 12:11:54;;;;;;;5.07;3.35;;;;;;;;;;5067965;28;20020;-73
2022/04/03 12:14:23;;;;;;;5.97;4.05;;;;;;;;;;5069452;28;20032;-74
2022/04/03 12:16:54;;;;;;;5.47;4.40;;;;;;;;;;5069245;28;20021;-74
2022/04/03 12:19:20;;;;;;;9.32;7.30;;;;;;;;;;5068644;28;20032;-73
2022/04/03 12:21:47;;;;;;;7.35;5.82;;;;;;;;;;5069278;28;20012;-73
2022/04/03 12:24:16;;;;;;;5.07;3.83;;;;;;;;;;5070106;28;20050;-73
2022/04/03 12:26:45;;;;;;;5.63;5.13;;;;;;;;;;5060756;28;20040;-75
2022/04/03 12:29:17;;;;;;;4.78;4.35;;;;;;;;;;5048607;28;20191;-74
2022/04/03 12:31:58;;;;;;;13.00;10.90;;;;;;;;;;5064942;28;20032;-75
2022/04/03 12:34:28;;;;;;;11.02;9.73;;;;;;;;;;5067778;28;20054;-74
2022/04/03 12:36:57;;;;;;;11.98;10.43;;;;;;;;;;5051803;28;20104;-75
2022/04/03 12:39:42;;;;;;;12.50;8.82;;;;;;;;;;5067606;28;20445;-75
2022/04/03 12:42:24;;;;;;;12.00;10.13;;;;;;;;;;5066822;28;20029;-74
2022/04/03 12:44:53;;;;;;;6.03;5.30;;;;;;;;;;5065489;28;20028;-73
2022/04/03 12:47:18;;;;;;;14.45;11.30;;;;;;;;;;5069198;28;20024;-73
2022/04/03 12:50:07;;;;;;;12.25;6.70;;;;;;;;;;5069152;28;20385;-74
2022/04/03 12:52:40;;;;;;;4.45;3.65;;;;;;;;;;5068821;28;20032;-73
2022/04/03 12:55:28;;;;;;;15.20;10.60;;;;;;;;;;5068655;28;20060;-72
2022/04/03 13:01:09;;;;;;;14.88;8.05;;;;;;;;;;5068921;28;20042;-72
2022/04/03 13:03:51;;;;;;;12.85;9.02;;;;;;;;;;5060320;28;20124;-72
2022/04/03 13:06:23;;;;;;;20.30;10.18;;;;;;;;;;5068414;28;20028;-72
2022/04/03 13:08:58;;;;;;;15.15;7.82;;;;;;;;;;5068773;28;20119;-72
2022/04/03 13:11:24;;;;;;;20.58;11.05;;;;;;;;;;5068510;28;20033;-72
2022/04/03 13:13:49;;;;;;;9.85;6.18;;;;;;;;;;5068629;28;20033;-72
2022/04/03 13:16:15;;;;;;;5.70;4.53;;;;;;;;;;5068500;28;20605;-72
2022/04/03 13:18:40;;;;;;;6.50;4.57;;;;;;;;;;5068604;28;20103;-72
2022/04/03 13:21:06;;;;;;;10.48;7.03;;;;;;;;;;5068796;28;20033;-72
2022/04/03 13:23:31;;;;;;;11.10;6.15;;;;;;;;;;5068791;28;20473;-72
2022/04/03 13:25:57;;;;;;;9.07;6.13;;;;;;;;;;5068275;28;20036;-72
2022/04/03 13:28:22;;;;;;;9.68;5.93;;;;;;;;;;5069897;28;20016;-72
2022/04/03 13:30:48;;;;;;;16.65;8.20;;;;;;;;;;5070204;28;20058;-72
2022/04/03 13:33:14;;;;;;;16.55;9.13;;;;;;;;;;5069995;28;20025;-71
2022/04/03 13:35:41;;;;;;;21.63;10.60;;;;;;;;;;5068624;28;20048;-73
2022/04/03 13:38:08;;;;;;;20.60;10.07;;;;;;;;;;5069413;28;20035;-72
2022/04/03 13:40:34;;;;;;;10.63;6.65;;;;;;;;;;5067333;28;20050;-72
2022/04/03 13:42:59;;;;;;;7.88;5.03;;;;;;;;;;5067283;28;20027;-72
2022/04/03 13:45:56;;;;;;;27.35;11.50;;;;;;;;;;5071944;28;20475;-72
2022/04/03 13:48:11;;;;;;;8.27;5.10;;;;;;;;;;5072141;28;20041;-79
2022/04/03 13:54:12;;;;;;;8.75;6.20;;;;;;;;;;5077732;28;20119;-82
2022/04/03 14:00:14;;;;;;;8.23;5.68;;;;;;;;;;5077376;28;20024;-83
2022/04/03 14:10:20;;;;;;;5.93;4.25;;;;;;;;;;5118262;28;20125;-82
2022/04/03 14:12:46;;;;;;;10.82;5.93;;;;;;;;;;5115015;28;20031;-81
2022/04/03 14:15:18;;;;;;;5.40;4.40;;;;;;;;;;5111858;28;20019;-83
2022/04/03 14:17:46;;;;;;;7.88;4.47;;;;;;;;;;5077097;28;20506;-83
2022/04/03 14:23:47;;;;;;;5.90;4.78;;;;;;;;;;5118226;28;20027;-83
2022/04/03 14:29:52;;;;;;;5.97;4.38;;;;;;;;;;5119712;28;20030;-82
2022/04/03 14:32:18;;;;;;;7.37;4.47;;;;;;;;;;5116922;28;20023;-83
2022/04/03 14:35:02;;;;;;;8.43;4.55;;;;;;;;;;5080803;28;20023;-83
2022/04/03 14:37:28;;;;;;;6.18;4.20;;;;;;;;;;5097930;28;20031;-83
2022/04/03 14:40:00;;;;;;;5.20;4.25;;;;;;;;;;5116488;28;20020;-83
2022/04/03 14:42:37;;;;;;;5.40;3.83;;;;;;;;;;5116103;28;20035;-83
2022/04/03 14:45:03;;;;;;;5.55;3.88;;;;;;;;;;5116232;28;20023;-83
2022/04/03 14:47:33;;;;;;;5.63;4.32;;;;;;;;;;5116115;28;20023;-82
2022/04/03 14:50:22;;;;;;;4.67;3.80;;;;;;;;;;5116301;28;20020;-83
2022/04/03 14:53:00;;;;;;;5.82;3.63;;;;;;;;;;5116850;28;20019;-81
2022/04/03 14:55:33;;;;;;;10.98;6.78;;;;;;;;;;5098120;28;20067;-82
2022/04/03 14:58:08;;;;;;;45.80;28.70;;;;;;;;;;5117681;28;20022;-82
2022/04/03 15:00:33;;;;;;;42.20;27.25;;;;;;;;;;5118704;28;20035;-82
2022/04/03 15:03:27;;;;;;;3.85;3.45;;;;;;;;;;5116574;28;20122;-82
2022/04/03 15:05:52;;;;;;;4.10;3.42;;;;;;;;;;5118388;28;20039;-82
2022/04/03 15:08:19;;;;;;;3.63;3.33;;;;;;;;;;5083079;28;20034;-82
2022/04/03 15:14:02;;;;;;;7.47;4.65;;;;;;;;;;5118840;28;20035;-82
2022/04/03 15:16:29;;;;;;;4.78;3.53;;;;;;;;;;5119000;28;20027;-82
2022/04/03 15:19:01;;;;;;;5.40;3.10;;;;;;;;;;5119627;28;20020;-81
2022/04/03 15:21:41;;;;;;;2.95;2.70;;;;;;;;;;5119417;28;20026;-82
2022/04/03 15:24:26;;;;;;;4.60;3.47;;;;;;;;;;5100973;28;20019;-81
2022/04/03 15:26:57;;;;;;;3.75;3.40;;;;;;;;;;5119693;28;20069;-82
2022/04/03 15:29:34;;;;;;;4.15;3.20;;;;;;;;;;5119279;28;20445;-82